sensor_id;sensor_type;location;lat;lon;timestamp;P1;durP1;ratioP1;P2;durP2;ratioP2
23567;SDS011;11962;50.838;4.430;2023-02-04T00:01:44;23.63;;;12.90;;
23567;SDS011;11962;50.838;4.430;2023-02-04T00:04:13;25.52;;;12.02;;
23567;SDS011;11962;50.838;4.430;2023-02-04T00:06:39;19.58;;;12.38;;
23567;SDS011;11962;50.838;4.430;2023-02-04T00:09:05;18.42;;;12.15;;
23567;SDS011;11962;50.838;4.430;2023-02-04T00:11:31;23.55;;;12.07;;
23567;SDS011;11962;50.838;4.430;2023-02-04T00:17:19;19.88;;;11.35;;
23567;SDS011;11962;50.838;4.430;2023-02-04T00:19:45;18.02;;;11.77;;
23567;SDS011;11962;50.838;4.430;2023-02-04T00:22:13;19.15;;;11.50;;
23567;SDS011;11962;50.838;4.430;2023-02-04T00:24:39;16.77;;;11.60;;
23567;SDS011;11962;50.838;4.430;2023-02-04T00:27:07;19.47;;;11.13;;
23567;SDS011;11962;50.838;4.430;2023-02-04T00:29:33;19.63;;;10.98;;
23567;SDS011;11962;50.838;4.430;2023-02-04T00:31:58;18.73;;;11.30;;
23567;SDS011;11962;50.838;4.430;2023-02-04T00:34:24;22.02;;;11.95;;
23567;SDS011;11962;50.838;4.430;2023-02-04T00:36:50;24.48;;;12.32;;
23567;SDS011;11962;50.838;4.430;2023-02-04T00:39:16;18.63;;;10.88;;
23567;SDS011;11962;50.838;4.430;2023-02-04T00:41:41;22.83;;;11.73;;
23567;SDS011;11962;50.838;4.430;2023-02-04T00:44:13;20.13;;;10.88;;
23567;SDS011;11962;50.838;4.430;2023-02-04T00:46:42;20.00;;;10.73;;
23567;SDS011;11962;50.838;4.430;2023-02-04T00:49:08;19.48;;;11.23;;
23567;SDS011;11962;50.838;4.430;2023-02-04T00:51:38;18.55;;;10.90;;
23567;SDS011;11962;50.838;4.430;2023-02-04T00:54:05;22.38;;;11.77;;
23567;SDS011;11962;50.838;4.430;2023-02-04T00:56:31;18.90;;;10.90;;
23567;SDS011;11962;50.838;4.430;2023-02-04T00:58:58;22.70;;;11.02;;
23567;SDS011;11962;50.838;4.430;2023-02-04T01:01:24;20.23;;;11.32;;
23567;SDS011;11962;50.838;4.430;2023-02-04T01:03:50;22.55;;;10.95;;
23567;SDS011;11962;50.838;4.430;2023-02-04T01:06:15;15.23;;;10.27;;
23567;SDS011;11962;50.838;4.430;2023-02-04T01:08:41;16.20;;;10.52;;
23567;SDS011;11962;50.838;4.430;2023-02-04T01:11:07;20.00;;;10.48;;
23567;SDS011;11962;50.838;4.430;2023-02-04T01:13:32;19.70;;;11.10;;
23567;SDS011;11962;50.838;4.430;2023-02-04T01:15:58;19.27;;;10.55;;
23567;SDS011;11962;50.838;4.430;2023-02-04T01:18:24;18.67;;;10.75;;
23567;SDS011;11962;50.838;4.430;2023-02-04T01:20:49;20.48;;;11.05;;
23567;SDS011;11962;50.838;4.430;2023-02-04T01:23:15;18.75;;;10.80;;
23567;SDS011;11962;50.838;4.430;2023-02-04T01:25:41;17.25;;;10.85;;
23567;SDS011;11962;50.838;4.430;2023-02-04T01:28:12;21.08;;;11.25;;
23567;SDS011;11962;50.838;4.430;2023-02-04T01:30:38;18.42;;;11.63;;
23567;SDS011;11962;50.838;4.430;2023-02-04T01:33:03;22.90;;;12.73;;
23567;SDS011;11962;50.838;4.430;2023-02-04T01:35:29;24.10;;;12.63;;
23567;SDS011;11962;50.838;4.430;2023-02-04T01:37:55;23.67;;;13.10;;
23567;SDS011;11962;50.838;4.430;2023-02-04T01:40:20;22.70;;;13.35;;
23567;SDS011;11962;50.838;4.430;2023-02-04T01:42:47;27.52;;;13.50;;
23567;SDS011;11962;50.838;4.430;2023-02-04T01:48:34;23.20;;;12.98;;
23567;SDS011;11962;50.838;4.430;2023-02-04T01:51:10;22.38;;;12.63;;
23567;SDS011;11962;50.838;4.430;2023-02-04T01:53:39;21.58;;;13.35;;
23567;SDS011;11962;50.838;4.430;2023-02-04T01:56:23;22.02;;;13.65;;
23567;SDS011;11962;50.838;4.430;2023-02-04T01:58:51;29.52;;;14.70;;
23567;SDS011;11962;50.838;4.430;2023-02-04T02:04:05;26.02;;;14.43;;
23567;SDS011;11962;50.838;4.430;2023-02-04T02:06:32;23.35;;;14.60;;
23567;SDS011;11962;50.838;4.430;2023-02-04T02:09:00;27.77;;;14.57;;
23567;SDS011;11962;50.838;4.430;2023-02-04T02:11:26;26.80;;;16.05;;
23567;SDS011;11962;50.838;4.430;2023-02-04T02:22:46;28.00;;;14.65;;
23567;SDS011;11962;50.838;4.430;2023-02-04T02:25:26;27.38;;;16.15;;
23567;SDS011;11962;50.838;4.430;2023-02-04T02:27:52;25.90;;;15.40;;
23567;SDS011;11962;50.838;4.430;2023-02-04T02:30:19;27.70;;;16.08;;
23567;SDS011;11962;50.838;4.430;2023-02-04T02:32:45;24.77;;;15.35;;
23567;SDS011;11962;50.838;4.430;2023-02-04T02:35:12;26.88;;;16.13;;
23567;SDS011;11962;50.838;4.430;2023-02-04T02:37:38;23.50;;;15.90;;
23567;SDS011;11962;50.838;4.430;2023-02-04T02:40:04;27.95;;;16.00;;
23567;SDS011;11962;50.838;4.430;2023-02-04T02:42:32;29.05;;;16.83;;
23567;SDS011;11962;50.838;4.430;2023-02-04T02:44:58;26.15;;;15.65;;
23567;SDS011;11962;50.838;4.430;2023-02-04T02:47:35;27.80;;;16.17;;
23567;SDS011;11962;50.838;4.430;2023-02-04T02:50:01;27.98;;;16.88;;
23567;SDS011;11962;50.838;4.430;2023-02-04T02:52:27;28.02;;;16.08;;
23567;SDS011;11962;50.838;4.430;2023-02-04T02:54:52;26.45;;;16.17;;
23567;SDS011;11962;50.838;4.430;2023-02-04T02:57:19;25.25;;;16.00;;
23567;SDS011;11962;50.838;4.430;2023-02-04T03:03:16;21.20;;;13.77;;
23567;SDS011;11962;50.838;4.430;2023-02-04T03:05:47;22.08;;;14.70;;
23567;SDS011;11962;50.838;4.430;2023-02-04T03:08:16;23.10;;;14.60;;
23567;SDS011;11962;50.838;4.430;2023-02-04T03:10:43;21.45;;;14.45;;
23567;SDS011;11962;50.838;4.430;2023-02-04T03:13:10;23.05;;;15.48;;
23567;SDS011;11962;50.838;4.430;2023-02-04T03:18:32;20.55;;;12.73;;
23567;SDS011;11962;50.838;4.430;2023-02-04T03:20:59;16.13;;;10.63;;
23567;SDS011;11962;50.838;4.430;2023-02-04T03:23:24;17.90;;;10.90;;
23567;SDS011;11962;50.838;4.430;2023-02-04T03:25:51;13.68;;;9.65;;
23567;SDS011;11962;50.838;4.430;2023-02-04T03:28:17;14.63;;;9.60;;
23567;SDS011;11962;50.838;4.430;2023-02-04T03:30:43;14.50;;;9.65;;
23567;SDS011;11962;50.838;4.430;2023-02-04T03:33:16;13.82;;;9.60;;
23567;SDS011;11962;50.838;4.430;2023-02-04T03:35:41;14.07;;;9.55;;
23567;SDS011;11962;50.838;4.430;2023-02-04T03:38:07;14.60;;;10.38;;
23567;SDS011;11962;50.838;4.430;2023-02-04T03:40:33;14.23;;;9.95;;
23567;SDS011;11962;50.838;4.430;2023-02-04T03:42:58;14.55;;;10.20;;
23567;SDS011;11962;50.838;4.430;2023-02-04T03:45:30;19.23;;;10.25;;
23567;SDS011;11962;50.838;4.430;2023-02-04T03:47:55;14.57;;;10.23;;
23567;SDS011;11962;50.838;4.430;2023-02-04T03:50:21;16.88;;;10.75;;
23567;SDS011;11962;50.838;4.430;2023-02-04T03:52:47;13.48;;;9.82;;
23567;SDS011;11962;50.838;4.430;2023-02-04T03:55:14;13.63;;;9.85;;
23567;SDS011;11962;50.838;4.430;2023-02-04T03:57:40;15.65;;;10.75;;
23567;SDS011;11962;50.838;4.430;2023-02-04T04:02:53;14.10;;;10.02;;
23567;SDS011;11962;50.838;4.430;2023-02-04T04:05:19;12.82;;;9.13;;
23567;SDS011;11962;50.838;4.430;2023-02-04T04:07:45;13.77;;;8.95;;
23567;SDS011;11962;50.838;4.430;2023-02-04T04:10:11;12.18;;;8.40;;
23567;SDS011;11962;50.838;4.430;2023-02-04T04:12:37;12.25;;;8.40;;
23567;SDS011;11962;50.838;4.430;2023-02-04T04:15:05;12.63;;;8.85;;
23567;SDS011;11962;50.838;4.430;2023-02-04T04:17:38;10.52;;;7.40;;
23567;SDS011;11962;50.838;4.430;2023-02-04T04:20:04;11.10;;;8.23;;
23567;SDS011;11962;50.838;4.430;2023-02-04T04:22:30;10.38;;;7.57;;
23567;SDS011;11962;50.838;4.430;2023-02-04T04:24:55;13.25;;;8.25;;
23567;SDS011;11962;50.838;4.430;2023-02-04T04:27:21;10.77;;;8.32;;
23567;SDS011;11962;50.838;4.430;2023-02-04T04:29:51;11.38;;;8.45;;
23567;SDS011;11962;50.838;4.430;2023-02-04T04:35:07;14.98;;;8.52;;
23567;SDS011;11962;50.838;4.430;2023-02-04T04:37:33;12.75;;;8.48;;
23567;SDS011;11962;50.838;4.430;2023-02-04T04:39:59;12.40;;;7.90;;
23567;SDS011;11962;50.838;4.430;2023-02-04T04:42:26;11.60;;;7.72;;
23567;SDS011;11962;50.838;4.430;2023-02-04T04:44:52;9.88;;;7.70;;
23567;SDS011;11962;50.838;4.430;2023-02-04T04:47:23;10.77;;;7.60;;
23567;SDS011;11962;50.838;4.430;2023-02-04T04:49:48;12.45;;;8.02;;
23567;SDS011;11962;50.838;4.430;2023-02-04T04:52:14;15.20;;;8.50;;
23567;SDS011;11962;50.838;4.430;2023-02-04T04:54:40;11.77;;;7.75;;
23567;SDS011;11962;50.838;4.430;2023-02-04T04:57:05;11.35;;;8.30;;
23567;SDS011;11962;50.838;4.430;2023-02-04T04:59:31;12.57;;;8.15;;
23567;SDS011;11962;50.838;4.430;2023-02-04T05:01:57;12.38;;;7.75;;
23567;SDS011;11962;50.838;4.430;2023-02-04T05:04:22;12.98;;;8.85;;
23567;SDS011;11962;50.838;4.430;2023-02-04T05:06:48;12.80;;;9.23;;
23567;SDS011;11962;50.838;4.430;2023-02-04T05:09:14;14.25;;;9.13;;
23567;SDS011;11962;50.838;4.430;2023-02-04T05:11:41;10.95;;;8.60;;
23567;SDS011;11962;50.838;4.430;2023-02-04T05:14:07;11.98;;;8.52;;
23567;SDS011;11962;50.838;4.430;2023-02-04T05:16:48;11.82;;;8.50;;
23567;SDS011;11962;50.838;4.430;2023-02-04T05:19:13;13.43;;;9.77;;
23567;SDS011;11962;50.838;4.430;2023-02-04T05:21:39;12.65;;;8.93;;
23567;SDS011;11962;50.838;4.430;2023-02-04T05:24:05;12.32;;;8.68;;
23567;SDS011;11962;50.838;4.430;2023-02-04T05:26:31;13.55;;;8.73;;
23567;SDS011;11962;50.838;4.430;2023-02-04T05:28:57;11.80;;;8.65;;
23567;SDS011;11962;50.838;4.430;2023-02-04T05:31:26;12.05;;;8.55;;
23567;SDS011;11962;50.838;4.430;2023-02-04T05:33:52;15.15;;;9.60;;
23567;SDS011;11962;50.838;4.430;2023-02-04T05:36:18;13.65;;;9.15;;
23567;SDS011;11962;50.838;4.430;2023-02-04T05:38:44;13.45;;;9.25;;
23567;SDS011;11962;50.838;4.430;2023-02-04T05:41:10;12.30;;;8.70;;
23567;SDS011;11962;50.838;4.430;2023-02-04T05:43:36;12.65;;;9.30;;
23567;SDS011;11962;50.838;4.430;2023-02-04T05:46:17;12.98;;;9.27;;
23567;SDS011;11962;50.838;4.430;2023-02-04T05:48:43;13.10;;;8.95;;
23567;SDS011;11962;50.838;4.430;2023-02-04T05:51:09;15.18;;;9.57;;
23567;SDS011;11962;50.838;4.430;2023-02-04T05:53:34;13.43;;;8.98;;
23567;SDS011;11962;50.838;4.430;2023-02-04T05:56:02;12.88;;;8.95;;
23567;SDS011;11962;50.838;4.430;2023-02-04T05:58:31;12.55;;;8.85;;
23567;SDS011;11962;50.838;4.430;2023-02-04T06:01:00;13.40;;;9.32;;
23567;SDS011;11962;50.838;4.430;2023-02-04T06:03:29;13.27;;;9.02;;
23567;SDS011;11962;50.838;4.430;2023-02-04T06:05:55;14.32;;;10.32;;
23567;SDS011;11962;50.838;4.430;2023-02-04T06:08:21;13.80;;;9.63;;
23567;SDS011;11962;50.838;4.430;2023-02-04T06:10:49;14.43;;;9.80;;
23567;SDS011;11962;50.838;4.430;2023-02-04T06:13:15;12.02;;;8.25;;
23567;SDS011;11962;50.838;4.430;2023-02-04T06:15:41;13.63;;;8.43;;
23567;SDS011;11962;50.838;4.430;2023-02-04T06:18:07;15.32;;;9.68;;
23567;SDS011;11962;50.838;4.430;2023-02-04T06:20:32;15.32;;;10.63;;
23567;SDS011;11962;50.838;4.430;2023-02-04T06:22:58;14.40;;;9.90;;
23567;SDS011;11962;50.838;4.430;2023-02-04T06:25:24;14.65;;;10.35;;
23567;SDS011;11962;50.838;4.430;2023-02-04T06:27:50;16.60;;;10.80;;
23567;SDS011;11962;50.838;4.430;2023-02-04T06:30:15;18.45;;;11.23;;
23567;SDS011;11962;50.838;4.430;2023-02-04T06:32:54;15.32;;;11.23;;
23567;SDS011;11962;50.838;4.430;2023-02-04T06:35:20;18.05;;;10.93;;
23567;SDS011;11962;50.838;4.430;2023-02-04T06:37:45;16.27;;;10.82;;
23567;SDS011;11962;50.838;4.430;2023-02-04T06:40:15;18.10;;;11.30;;
23567;SDS011;11962;50.838;4.430;2023-02-04T06:42:41;16.48;;;10.90;;
23567;SDS011;11962;50.838;4.430;2023-02-04T06:45:07;14.85;;;10.77;;
23567;SDS011;11962;50.838;4.430;2023-02-04T06:47:33;14.70;;;10.15;;
23567;SDS011;11962;50.838;4.430;2023-02-04T06:49:59;16.63;;;10.77;;
23567;SDS011;11962;50.838;4.430;2023-02-04T06:52:24;19.92;;;10.73;;
23567;SDS011;11962;50.838;4.430;2023-02-04T06:54:50;16.67;;;10.80;;
23567;SDS011;11962;50.838;4.430;2023-02-04T06:57:16;16.30;;;10.93;;
23567;SDS011;11962;50.838;4.430;2023-02-04T06:59:42;14.38;;;10.02;;
23567;SDS011;11962;50.838;4.430;2023-02-04T07:02:13;16.23;;;11.10;;
23567;SDS011;11962;50.838;4.430;2023-02-04T07:04:39;15.75;;;10.68;;
23567;SDS011;11962;50.838;4.430;2023-02-04T07:07:07;18.05;;;11.93;;
23567;SDS011;11962;50.838;4.430;2023-02-04T07:09:34;14.98;;;10.40;;
23567;SDS011;11962;50.838;4.430;2023-02-04T07:12:01;16.92;;;10.98;;
23567;SDS011;11962;50.838;4.430;2023-02-04T07:14:27;18.08;;;10.77;;
23567;SDS011;11962;50.838;4.430;2023-02-04T07:16:53;16.10;;;10.50;;
23567;SDS011;11962;50.838;4.430;2023-02-04T07:19:19;16.88;;;11.27;;
23567;SDS011;11962;50.838;4.430;2023-02-04T07:21:44;15.32;;;10.32;;
23567;SDS011;11962;50.838;4.430;2023-02-04T07:24:10;16.48;;;10.65;;
23567;SDS011;11962;50.838;4.430;2023-02-04T07:26:36;17.25;;;12.05;;
23567;SDS011;11962;50.838;4.430;2023-02-04T07:29:02;15.88;;;10.50;;
23567;SDS011;11962;50.838;4.430;2023-02-04T07:31:27;17.02;;;11.00;;
23567;SDS011;11962;50.838;4.430;2023-02-04T07:33:53;15.80;;;9.95;;
23567;SDS011;11962;50.838;4.430;2023-02-04T07:36:21;18.77;;;10.93;;
23567;SDS011;11962;50.838;4.430;2023-02-04T07:38:50;15.13;;;10.73;;
23567;SDS011;11962;50.838;4.430;2023-02-04T07:41:18;14.02;;;9.43;;
23567;SDS011;11962;50.838;4.430;2023-02-04T07:43:45;13.98;;;8.93;;
23567;SDS011;11962;50.838;4.430;2023-02-04T07:46:14;14.75;;;9.25;;
23567;SDS011;11962;50.838;4.430;2023-02-04T07:48:39;14.77;;;10.00;;
23567;SDS011;11962;50.838;4.430;2023-02-04T07:51:05;13.20;;;9.00;;
23567;SDS011;11962;50.838;4.430;2023-02-04T07:53:31;10.90;;;7.40;;
23567;SDS011;11962;50.838;4.430;2023-02-04T07:55:57;10.10;;;7.30;;
23567;SDS011;11962;50.838;4.430;2023-02-04T08:00:51;12.63;;;7.40;;
23567;SDS011;11962;50.838;4.430;2023-02-04T08:03:17;11.10;;;7.47;;
23567;SDS011;11962;50.838;4.430;2023-02-04T08:05:42;10.63;;;7.85;;
23567;SDS011;11962;50.838;4.430;2023-02-04T08:08:08;9.60;;;6.95;;
23567;SDS011;11962;50.838;4.430;2023-02-04T08:10:34;9.57;;;6.40;;
23567;SDS011;11962;50.838;4.430;2023-02-04T08:12:59;13.30;;;7.65;;
23567;SDS011;11962;50.838;4.430;2023-02-04T08:15:25;11.05;;;7.35;;
23567;SDS011;11962;50.838;4.430;2023-02-04T08:17:51;9.95;;;6.60;;
23567;SDS011;11962;50.838;4.430;2023-02-04T08:20:17;9.60;;;6.43;;
23567;SDS011;11962;50.838;4.430;2023-02-04T08:22:43;7.25;;;5.10;;
23567;SDS011;11962;50.838;4.430;2023-02-04T08:25:10;9.98;;;6.35;;
23567;SDS011;11962;50.838;4.430;2023-02-04T08:27:36;11.02;;;6.60;;
23567;SDS011;11962;50.838;4.430;2023-02-04T08:30:02;10.80;;;6.00;;
23567;SDS011;11962;50.838;4.430;2023-02-04T08:32:29;8.90;;;6.18;;
23567;SDS011;11962;50.838;4.430;2023-02-04T08:34:55;9.43;;;6.10;;
23567;SDS011;11962;50.838;4.430;2023-02-04T08:37:22;8.32;;;6.35;;
23567;SDS011;11962;50.838;4.430;2023-02-04T08:39:47;9.05;;;6.65;;
23567;SDS011;11962;50.838;4.430;2023-02-04T08:42:14;8.93;;;6.00;;
23567;SDS011;11962;50.838;4.430;2023-02-04T08:44:40;8.13;;;5.97;;
23567;SDS011;11962;50.838;4.430;2023-02-04T08:47:06;8.68;;;5.68;;
23567;SDS011;11962;50.838;4.430;2023-02-04T08:49:35;9.27;;;6.03;;
23567;SDS011;11962;50.838;4.430;2023-02-04T08:52:27;8.25;;;6.05;;
23567;SDS011;11962;50.838;4.430;2023-02-04T08:54:53;8.27;;;5.60;;
23567;SDS011;11962;50.838;4.430;2023-02-04T08:57:19;8.52;;;5.88;;
23567;SDS011;11962;50.838;4.430;2023-02-04T08:59:44;9.27;;;5.70;;
23567;SDS011;11962;50.838;4.430;2023-02-04T09:02:10;6.68;;;4.70;;
23567;SDS011;11962;50.838;4.430;2023-02-04T09:04:36;8.07;;;5.47;;
23567;SDS011;11962;50.838;4.430;2023-02-04T09:07:01;5.53;;;2.50;;
23567;SDS011;11962;50.838;4.430;2023-02-04T09:09:27;7.57;;;2.38;;
23567;SDS011;11962;50.838;4.430;2023-02-04T09:11:53;9.70;;;2.30;;
23567;SDS011;11962;50.838;4.430;2023-02-04T09:14:19;6.55;;;2.03;;
23567;SDS011;11962;50.838;4.430;2023-02-04T09:16:45;6.03;;;2.08;;
23567;SDS011;11962;50.838;4.430;2023-02-04T09:19:12;7.85;;;2.38;;
23567;SDS011;11962;50.838;4.430;2023-02-04T09:21:40;8.40;;;2.15;;
23567;SDS011;11962;50.838;4.430;2023-02-04T09:24:06;8.40;;;2.17;;
23567;SDS011;11962;50.838;4.430;2023-02-04T09:26:32;8.85;;;2.60;;
23567;SDS011;11962;50.838;4.430;2023-02-04T09:28:58;3.60;;;1.75;;
23567;SDS011;11962;50.838;4.430;2023-02-04T09:31:24;5.30;;;1.73;;
23567;SDS011;11962;50.838;4.430;2023-02-04T09:33:49;5.95;;;1.65;;
23567;SDS011;11962;50.838;4.430;2023-02-04T09:36:17;7.28;;;2.38;;
23567;SDS011;11962;50.838;4.430;2023-02-04T09:38:42;6.15;;;2.10;;
23567;SDS011;11962;50.838;4.430;2023-02-04T09:41:09;4.15;;;2.03;;
23567;SDS011;11962;50.838;4.430;2023-02-04T09:43:40;6.38;;;2.25;;
23567;SDS011;11962;50.838;4.430;2023-02-04T09:46:13;8.55;;;2.13;;
23567;SDS011;11962;50.838;4.430;2023-02-04T09:48:45;10.35;;;2.13;;
23567;SDS011;11962;50.838;4.430;2023-02-04T09:51:12;6.30;;;1.20;;
23567;SDS011;11962;50.838;4.430;2023-02-04T09:53:44;4.57;;;1.40;;
23567;SDS011;11962;50.838;4.430;2023-02-04T09:56:12;4.23;;;1.33;;
23567;SDS011;11962;50.838;4.430;2023-02-04T09:58:39;6.22;;;1.40;;
23567;SDS011;11962;50.838;4.430;2023-02-04T10:01:18;11.18;;;1.80;;
23567;SDS011;11962;50.838;4.430;2023-02-04T10:03:45;4.80;;;1.45;;
23567;SDS011;11962;50.838;4.430;2023-02-04T10:09:10;5.90;;;1.67;;
23567;SDS011;11962;50.838;4.430;2023-02-04T10:11:36;3.97;;;1.50;;
23567;SDS011;11962;50.838;4.430;2023-02-04T10:14:04;4.30;;;1.70;;
23567;SDS011;11962;50.838;4.430;2023-02-04T10:16:34;5.82;;;2.10;;
23567;SDS011;11962;50.838;4.430;2023-02-04T10:19:03;2.65;;;1.38;;
23567;SDS011;11962;50.838;4.430;2023-02-04T10:21:32;4.25;;;1.67;;
23567;SDS011;11962;50.838;4.430;2023-02-04T10:24:04;4.35;;;1.77;;
23567;SDS011;11962;50.838;4.430;2023-02-04T10:26:35;2.88;;;1.50;;
23567;SDS011;11962;50.838;4.430;2023-02-04T10:29:05;5.30;;;1.90;;
23567;SDS011;11962;50.838;4.430;2023-02-04T10:31:33;4.63;;;1.50;;
23567;SDS011;11962;50.838;4.430;2023-02-04T10:37:20;3.85;;;1.60;;
23567;SDS011;11962;50.838;4.430;2023-02-04T10:39:46;4.32;;;2.08;;
23567;SDS011;11962;50.838;4.430;2023-02-04T10:42:19;3.47;;;1.67;;
23567;SDS011;11962;50.838;4.430;2023-02-04T10:44:53;3.30;;;1.60;;
23567;SDS011;11962;50.838;4.430;2023-02-04T10:47:20;3.53;;;1.73;;
23567;SDS011;11962;50.838;4.430;2023-02-04T10:49:51;2.60;;;1.88;;
23567;SDS011;11962;50.838;4.430;2023-02-04T10:52:17;3.72;;;2.00;;
23567;SDS011;11962;50.838;4.430;2023-02-04T10:54:45;2.28;;;1.85;;
23567;SDS011;11962;50.838;4.430;2023-02-04T10:59:52;3.40;;;2.10;;
23567;SDS011;11962;50.838;4.430;2023-02-04T11:05:16;3.53;;;2.22;;
23567;SDS011;11962;50.838;4.430;2023-02-04T11:07:44;3.03;;;2.72;;
23567;SDS011;11962;50.838;4.430;2023-02-04T11:10:12;3.47;;;2.60;;
23567;SDS011;11962;50.838;4.430;2023-02-04T11:12:40;3.70;;;2.60;;
23567;SDS011;11962;50.838;4.430;2023-02-04T11:18:09;3.38;;;2.33;;
23567;SDS011;11962;50.838;4.430;2023-02-04T11:20:44;5.65;;;2.55;;
23567;SDS011;11962;50.838;4.430;2023-02-04T11:28:46;1.85;;;1.75;;
23567;SDS011;11962;50.838;4.430;2023-02-04T11:33:47;3.33;;;2.50;;
23567;SDS011;11962;50.838;4.430;2023-02-04T11:36:16;2.90;;;2.60;;
23567;SDS011;11962;50.838;4.430;2023-02-04T11:38:43;4.25;;;2.60;;
23567;SDS011;11962;50.838;4.430;2023-02-04T11:41:26;3.45;;;2.65;;
23567;SDS011;11962;50.838;4.430;2023-02-04T11:43:54;3.63;;;3.13;;
23567;SDS011;11962;50.838;4.430;2023-02-04T11:46:21;4.63;;;3.00;;
23567;SDS011;11962;50.838;4.430;2023-02-04T11:48:53;3.70;;;3.28;;
23567;SDS011;11962;50.838;4.430;2023-02-04T11:51:21;4.05;;;3.60;;
23567;SDS011;11962;50.838;4.430;2023-02-04T11:53:56;4.18;;;3.78;;
23567;SDS011;11962;50.838;4.430;2023-02-04T11:56:22;5.57;;;4.43;;
23567;SDS011;11962;50.838;4.430;2023-02-04T11:58:51;5.20;;;4.20;;
23567;SDS011;11962;50.838;4.430;2023-02-04T12:01:39;8.10;;;4.70;;
23567;SDS011;11962;50.838;4.430;2023-02-04T12:04:06;6.75;;;4.50;;
23567;SDS011;11962;50.838;4.430;2023-02-04T12:06:59;6.90;;;5.43;;
23567;SDS011;11962;50.838;4.430;2023-02-04T12:09:30;7.55;;;5.45;;
23567;SDS011;11962;50.838;4.430;2023-02-04T12:12:00;7.90;;;4.93;;
23567;SDS011;11962;50.838;4.430;2023-02-04T12:14:31;7.20;;;5.50;;
23567;SDS011;11962;50.838;4.430;2023-02-04T12:16:58;6.70;;;5.25;;
23567;SDS011;11962;50.838;4.430;2023-02-04T12:19:24;7.75;;;5.05;;
23567;SDS011;11962;50.838;4.430;2023-02-04T12:21:50;9.02;;;6.20;;
23567;SDS011;11962;50.838;4.430;2023-02-04T12:24:16;6.53;;;5.10;;
23567;SDS011;11962;50.838;4.430;2023-02-04T12:26:41;4.60;;;4.00;;
23567;SDS011;11962;50.838;4.430;2023-02-04T12:29:07;9.60;;;4.70;;
23567;SDS011;11962;50.838;4.430;2023-02-04T12:31:33;5.82;;;4.57;;
23567;SDS011;11962;50.838;4.430;2023-02-04T12:34:02;7.72;;;4.93;;
23567;SDS011;11962;50.838;4.430;2023-02-04T12:36:28;7.63;;;5.05;;
23567;SDS011;11962;50.838;4.430;2023-02-04T12:38:57;6.38;;;4.32;;
23567;SDS011;11962;50.838;4.430;2023-02-04T12:41:23;6.63;;;5.05;;
23567;SDS011;11962;50.838;4.430;2023-02-04T12:43:49;8.70;;;5.50;;
23567;SDS011;11962;50.838;4.430;2023-02-04T12:46:15;10.32;;;5.60;;
23567;SDS011;11962;50.838;4.430;2023-02-04T12:48:42;7.63;;;5.43;;
23567;SDS011;11962;50.838;4.430;2023-02-04T12:51:08;8.02;;;5.60;;
23567;SDS011;11962;50.838;4.430;2023-02-04T12:53:34;8.77;;;6.20;;
23567;SDS011;11962;50.838;4.430;2023-02-04T12:56:00;7.25;;;5.70;;
23567;SDS011;11962;50.838;4.430;2023-02-04T12:58:25;7.72;;;5.88;;
23567;SDS011;11962;50.838;4.430;2023-02-04T13:00:51;9.57;;;6.28;;
23567;SDS011;11962;50.838;4.430;2023-02-04T13:03:17;10.80;;;6.57;;
23567;SDS011;11962;50.838;4.430;2023-02-04T13:05:43;15.88;;;6.85;;
23567;SDS011;11962;50.838;4.430;2023-02-04T13:08:08;12.43;;;7.60;;
23567;SDS011;11962;50.838;4.430;2023-02-04T13:10:34;11.43;;;7.18;;
23567;SDS011;11962;50.838;4.430;2023-02-04T13:13:00;11.60;;;7.35;;
23567;SDS011;11962;50.838;4.430;2023-02-04T13:15:27;9.23;;;6.72;;
23567;SDS011;11962;50.838;4.430;2023-02-04T13:17:52;13.77;;;7.60;;
23567;SDS011;11962;50.838;4.430;2023-02-04T13:20:18;14.05;;;7.15;;
23567;SDS011;11962;50.838;4.430;2023-02-04T13:22:47;16.70;;;8.25;;
23567;SDS011;11962;50.838;4.430;2023-02-04T13:25:12;13.73;;;8.05;;
23567;SDS011;11962;50.838;4.430;2023-02-04T13:27:38;13.95;;;7.90;;
23567;SDS011;11962;50.838;4.430;2023-02-04T13:30:04;11.93;;;8.20;;
23567;SDS011;11962;50.838;4.430;2023-02-04T13:32:31;16.08;;;8.40;;
23567;SDS011;11962;50.838;4.430;2023-02-04T13:34:57;17.23;;;9.18;;
23567;SDS011;11962;50.838;4.430;2023-02-04T13:37:32;15.43;;;9.05;;
23567;SDS011;11962;50.838;4.430;2023-02-04T13:39:58;13.55;;;8.77;;
23567;SDS011;11962;50.838;4.430;2023-02-04T13:42:23;13.65;;;9.15;;
23567;SDS011;11962;50.838;4.430;2023-02-04T13:44:49;16.08;;;10.00;;
23567;SDS011;11962;50.838;4.430;2023-02-04T13:47:15;20.40;;;10.52;;
23567;SDS011;11962;50.838;4.430;2023-02-04T13:49:41;17.17;;;9.73;;
23567;SDS011;11962;50.838;4.430;2023-02-04T14:05:06;20.70;;;11.15;;
23567;SDS011;11962;50.838;4.430;2023-02-04T14:10:54;19.50;;;10.13;;
23567;SDS011;11962;50.838;4.430;2023-02-04T14:13:20;18.25;;;10.57;;
23567;SDS011;11962;50.838;4.430;2023-02-04T14:15:46;17.83;;;10.80;;
23567;SDS011;11962;50.838;4.430;2023-02-04T14:18:11;18.15;;;10.18;;
23567;SDS011;11962;50.838;4.430;2023-02-04T14:20:37;18.17;;;10.15;;
23567;SDS011;11962;50.838;4.430;2023-02-04T14:23:12;18.58;;;10.52;;
23567;SDS011;11962;50.838;4.430;2023-02-04T14:25:38;18.15;;;10.70;;
23567;SDS011;11962;50.838;4.430;2023-02-04T14:28:04;17.70;;;10.90;;
23567;SDS011;11962;50.838;4.430;2023-02-04T14:30:30;16.52;;;9.90;;
23567;SDS011;11962;50.838;4.430;2023-02-04T14:32:57;19.10;;;10.15;;
23567;SDS011;11962;50.838;4.430;2023-02-04T14:35:23;17.95;;;10.55;;
23567;SDS011;11962;50.838;4.430;2023-02-04T14:41:26;18.23;;;10.65;;
23567;SDS011;11962;50.838;4.430;2023-02-04T14:43:54;19.23;;;11.48;;
23567;SDS011;11962;50.838;4.430;2023-02-04T14:46:19;18.90;;;11.80;;
23567;SDS011;11962;50.838;4.430;2023-02-04T14:48:45;21.73;;;12.93;;
23567;SDS011;11962;50.838;4.430;2023-02-04T14:51:11;20.10;;;12.48;;
23567;SDS011;11962;50.838;4.430;2023-02-04T14:53:37;19.70;;;12.50;;
23567;SDS011;11962;50.838;4.430;2023-02-04T14:56:03;21.75;;;13.32;;
23567;SDS011;11962;50.838;4.430;2023-02-04T14:58:29;24.20;;;14.60;;
23567;SDS011;11962;50.838;4.430;2023-02-04T15:00:55;24.23;;;14.80;;
23567;SDS011;11962;50.838;4.430;2023-02-04T15:03:21;24.35;;;15.63;;
23567;SDS011;11962;50.838;4.430;2023-02-04T15:05:47;29.20;;;18.58;;
23567;SDS011;11962;50.838;4.430;2023-02-04T15:08:12;32.88;;;20.08;;
23567;SDS011;11962;50.838;4.430;2023-02-04T15:10:38;36.08;;;20.85;;
23567;SDS011;11962;50.838;4.430;2023-02-04T15:13:05;36.00;;;21.92;;
23567;SDS011;11962;50.838;4.430;2023-02-04T15:15:31;36.03;;;21.27;;
23567;SDS011;11962;50.838;4.430;2023-02-04T15:17:56;37.38;;;20.27;;
23567;SDS011;11962;50.838;4.430;2023-02-04T15:20:22;38.58;;;21.92;;
23567;SDS011;11962;50.838;4.430;2023-02-04T15:22:54;36.30;;;22.08;;
23567;SDS011;11962;50.838;4.430;2023-02-04T15:25:21;34.60;;;21.00;;
23567;SDS011;11962;50.838;4.430;2023-02-04T15:27:47;31.65;;;21.33;;
23567;SDS011;11962;50.838;4.430;2023-02-04T15:30:13;30.73;;;18.85;;
23567;SDS011;11962;50.838;4.430;2023-02-04T15:32:39;31.95;;;19.65;;
23567;SDS011;11962;50.838;4.430;2023-02-04T15:35:06;31.50;;;19.15;;
23567;SDS011;11962;50.838;4.430;2023-02-04T15:37:33;37.10;;;19.25;;
23567;SDS011;11962;50.838;4.430;2023-02-04T15:39:59;30.25;;;20.55;;
23567;SDS011;11962;50.838;4.430;2023-02-04T15:42:25;29.30;;;18.15;;
23567;SDS011;11962;50.838;4.430;2023-02-04T15:44:51;30.60;;;19.10;;
23567;SDS011;11962;50.838;4.430;2023-02-04T15:47:17;29.65;;;18.60;;
23567;SDS011;11962;50.838;4.430;2023-02-04T15:49:44;32.88;;;19.55;;